Terminal Aerodrome Forecast
Issued by NWS Cleveland, OH

Home | Current Version | Previous Version | Graphics & Text | Print | Product List | Glossary On
Versions: 1 2 3 4 5 6 7 8 9 10 11 12 13 14 15 16 17 18 19 20
000
FTUS41 KCLE 211124
TAFMFD
TAF
KMFD 211124Z 2112/2212 16010KT P6SM BKN150
     FM211500 18012KT P6SM BKN070
     FM212100 20010KT P6SM OVC050 PROB30 2121/2124 -SHRA
     FM220200 20005KT P6SM OVC025
     FM220700 18005KT 3SM BR OVC008=

USA.gov is the U.S. government's official web portal to all federal, state and local government web resources and services.